Time;durP1;ratioP1;P1;durP2;ratioP2;P2;SDS_P1;SDS_P2;PMS_P1;PMS_P2;Temp;Humidity;BMP_temperature;BMP_pressure;BME280_temperature;BME280_humidity;BME280_pressure;Samples;Min_cycle;Max_cycle;Signal;HPM_P1;HPM_P2
2023/04/01 00:01:11;;;;;;;8.18;5.95;;;;;;;11.83;81.59;97539.50;4975747;28;20145;-83
2023/04/01 00:03:38;;;;;;;6.95;5.03;;;;;;;11.83;81.59;97547.41;4975612;28;20074;-83
2023/04/01 00:06:05;;;;;;;10.68;5.82;;;;;;;11.80;81.52;97547.69;4992387;28;20058;-83
2023/04/01 00:08:32;;;;;;;9.13;5.05;;;;;;;11.81;81.41;97552.00;4992466;28;20112;-82
2023/04/01 00:10:59;;;;;;;6.65;5.25;;;;;;;11.81;81.51;97549.38;4992653;28;20527;-82
2023/04/01 00:13:26;;;;;;;5.72;4.72;;;;;;;11.80;81.69;97551.16;4992723;28;20417;-82
2023/04/01 00:15:54;;;;;;;9.95;5.63;;;;;;;11.79;81.84;97544.25;4992068;28;20054;-82
2023/04/01 00:18:22;;;;;;;7.50;5.40;;;;;;;11.80;81.88;97547.69;4974993;28;20058;-82
2023/04/01 00:20:50;;;;;;;9.25;5.07;;;;;;;11.81;81.70;97544.09;4975116;28;20070;-82
2023/04/01 00:23:17;;;;;;;7.97;5.20;;;;;;;11.81;81.79;97536.19;4975212;28;20505;-82
2023/04/01 00:25:47;;;;;;;7.35;4.63;;;;;;;11.81;81.70;97539.63;4992250;28;20065;-83
2023/04/01 00:28:16;;;;;;;6.45;4.53;;;;;;;11.81;81.59;97549.38;4974673;28;20058;-83
2023/04/01 00:30:43;;;;;;;7.43;3.85;;;;;;;11.82;81.77;97543.13;4991103;28;20064;-82
2023/04/01 00:33:10;;;;;;;8.45;4.03;;;;;;;11.81;81.78;97537.00;4992555;28;20058;-82
2023/04/01 00:35:37;;;;;;;7.20;3.83;;;;;;;11.81;81.66;97539.63;4990026;28;20051;-82
2023/04/01 00:38:04;;;;;;;4.63;4.03;;;;;;;11.81;81.57;97541.47;4990741;28;20054;-83
2023/04/01 00:40:33;;;;;;;8.43;3.67;;;;;;;11.76;81.25;97536.63;5007094;28;20063;-82
2023/04/01 00:43:00;;;;;;;6.30;3.42;;;;;;;11.76;81.55;97527.88;4992277;28;20072;-82
2023/04/01 00:45:37;;;;;;;5.18;3.17;;;;;;;11.73;81.28;97529.03;4992066;28;20060;-82
2023/04/01 00:48:09;;;;;;;5.28;3.47;;;;;;;11.74;81.37;97535.97;4991728;28;20065;-83
2023/04/01 00:50:39;;;;;;;6.07;3.03;;;;;;;11.74;81.82;97533.34;4992081;28;20058;-83
2023/04/01 00:53:07;;;;;;;5.57;3.47;;;;;;;11.73;81.73;97534.28;4991982;28;20289;-82
2023/04/01 00:55:37;;;;;;;3.53;2.95;;;;;;;11.72;81.55;97533.47;4991473;28;21011;-82
2023/04/01 00:58:07;;;;;;;3.55;2.72;;;;;;;11.72;81.50;97532.63;4991814;28;20416;-83
2023/04/01 01:00:35;;;;;;;6.38;3.15;;;;;;;11.71;81.53;97534.44;4992006;28;20077;-83
2023/04/01 01:03:02;;;;;;;5.53;2.83;;;;;;;11.69;81.39;97531.13;4991823;28;20149;-83
2023/04/01 01:05:56;;;;;;;5.25;2.80;;;;;;;11.64;80.92;97525.50;4990202;28;20116;-83
2023/04/01 01:08:44;;;;;;;3.05;2.47;;;;;;;11.65;81.07;97532.41;4991439;28;20066;-83
2023/04/01 01:11:12;;;;;;;3.70;2.60;;;;;;;11.68;81.96;97526.84;4991535;28;20054;-83
2023/04/01 01:14:09;;;;;;;4.38;2.58;;;;;;;11.65;81.20;97534.22;4990297;28;20058;-83
2023/04/01 01:16:44;;;;;;;6.15;2.58;;;;;;;11.67;81.55;97527.00;4984852;28;20078;-83
2023/04/01 01:19:32;;;;;;;3.97;2.58;;;;;;;11.68;81.49;97531.28;4990287;28;20149;-83
2023/04/01 01:22:33;;;;;;;4.72;2.95;;;;;;;11.65;81.23;97526.31;4991497;28;20053;-83
2023/04/01 01:25:14;;;;;;;4.65;2.67;;;;;;;11.63;80.86;97526.47;4960568;28;20084;-83
2023/04/01 01:27:48;;;;;;;6.53;2.90;;;;;;;11.68;81.78;97518.94;4991174;28;20058;-83
2023/04/01 01:30:23;;;;;;;2.58;2.22;;;;;;;11.68;81.66;97515.47;4990040;28;20058;-83
2023/04/01 01:33:07;;;;;;;2.88;2.40;;;;;;;11.65;81.28;97515.75;5006139;28;20060;-83
2023/04/01 01:35:49;;;;;;;5.88;2.58;;;;;;;11.64;81.46;97522.00;4991073;28;20062;-83
2023/04/01 01:38:21;;;;;;;5.93;2.83;;;;;;;11.68;81.88;97528.66;4990931;28;20149;-83
2023/04/01 01:40:53;;;;;;;6.80;2.65;;;;;;;11.68;81.95;97526.00;4989425;28;20046;-83
2023/04/01 01:43:27;;;;;;;5.22;2.78;;;;;;;11.67;81.39;97519.09;4991096;28;20118;-83
2023/04/01 01:45:57;;;;;;;3.72;2.60;;;;;;;11.67;81.58;97522.53;4990607;28;20073;-83
2023/04/01 01:48:26;;;;;;;4.32;2.45;;;;;;;11.68;81.83;97526.84;4989373;28;20062;-83
2023/04/01 01:50:53;;;;;;;4.53;2.70;;;;;;;11.67;81.76;97513.81;4990853;28;20062;-83
2023/04/01 01:53:20;;;;;;;3.35;2.78;;;;;;;11.66;81.63;97520.88;4991003;28;20062;-83
2023/04/01 01:55:47;;;;;;;5.93;3.28;;;;;;;11.64;81.57;97532.56;4990518;28;20139;-83
2023/04/01 01:58:17;;;;;;;4.53;2.88;;;;;;;11.64;81.44;97527.28;4990314;28;20436;-83
2023/04/01 02:00:50;;;;;;;5.28;2.53;;;;;;;11.59;81.56;97520.66;4989329;28;20056;-83
2023/04/01 02:03:19;;;;;;;3.58;2.92;;;;;;;11.63;81.90;97529.13;4989567;28;20065;-83
2023/04/01 02:05:46;;;;;;;3.53;3.10;;;;;;;11.60;81.88;97530.22;4990393;28;20649;-83
2023/04/01 02:08:21;;;;;;;3.08;2.80;;;;;;;11.56;80.83;97534.13;4990017;28;20524;-83
2023/04/01 02:11:00;;;;;;;3.67;3.08;;;;;;;11.55;81.26;97521.94;4990733;28;20097;-84
2023/04/01 02:13:33;;;;;;;6.65;3.03;;;;;;;11.57;81.80;97534.97;4973339;28;20058;-83
2023/04/01 02:16:07;;;;;;;4.72;3.03;;;;;;;11.56;81.86;97520.13;4988852;28;20085;-83
2023/04/01 02:18:37;;;;;;;3.88;3.53;;;;;;;11.55;82.09;97523.75;4990735;28;20061;-83
2023/04/01 02:21:05;;;;;;;4.57;3.47;;;;;;;11.56;82.18;97523.59;4989015;28;20054;-83
2023/04/01 02:23:35;;;;;;;7.68;3.55;;;;;;;11.58;81.92;97523.44;4990275;28;20082;-83
2023/04/01 02:26:06;;;;;;;5.43;4.05;;;;;;;11.59;82.17;97525.13;4990128;28;20054;-83
2023/04/01 02:28:34;;;;;;;4.10;3.63;;;;;;;11.60;82.28;97522.31;4988575;28;20066;-82
2023/04/01 02:31:02;;;;;;;5.07;4.18;;;;;;;11.63;82.35;97523.00;4990235;28;20046;-83
2023/04/01 02:33:30;;;;;;;7.15;4.30;;;;;;;11.65;82.53;97523.66;4988762;28;20054;-83
2023/04/01 02:35:58;;;;;;;4.45;4.03;;;;;;;11.67;82.24;97524.34;4990369;28;20077;-83
2023/04/01 02:38:24;;;;;;;5.60;3.97;;;;;;;11.70;82.14;97521.44;4989859;28;20054;-83
2023/04/01 02:40:57;;;;;;;4.95;4.28;;;;;;;11.67;81.63;97522.53;4990036;28;20535;-83
2023/04/01 02:43:24;;;;;;;;;;;;;;;11.71;81.23;97525.72;4990580;28;20489;-83
2023/04/01 02:45:51;;;;;;;6.97;4.20;;;;;;;11.76;81.83;97526.09;4988453;28;19980;-82
2023/04/01 02:48:17;;;;;;;6.38;4.50;;;;;;;11.73;81.61;97521.13;4989730;28;20069;-82
2023/04/01 02:50:44;;;;;;;5.57;4.13;;;;;;;11.72;82.00;97522.94;4988560;28;20058;-82
2023/04/01 02:53:11;;;;;;;5.40;4.38;;;;;;;11.73;82.08;97521.13;4991206;28;20058;-83
2023/04/01 02:55:37;;;;;;;5.28;4.60;;;;;;;11.73;81.86;97516.69;5009061;28;20065;-83
2023/04/01 02:58:04;;;;;;;5.95;4.90;;;;;;;11.74;81.83;97522.78;4993722;28;20512;-83
2023/04/01 03:00:31;;;;;;;5.18;4.18;;;;;;;11.75;81.88;97520.97;4994035;28;20065;-82
2023/04/01 03:02:57;;;;;;;4.38;3.95;;;;;;;11.76;82.13;97520.81;4993963;28;20054;-82
2023/04/01 03:05:24;;;;;;;4.22;3.83;;;;;;;11.75;82.03;97524.44;4993754;28;20077;-82
2023/04/01 03:07:51;;;;;;;6.63;3.55;;;;;;;11.76;82.07;97519.97;4993627;28;20054;-83
2023/04/01 03:10:18;;;;;;;5.50;4.28;;;;;;;11.76;81.93;97515.56;4994028;28;20473;-83
2023/04/01 03:12:44;;;;;;;6.53;4.65;;;;;;;11.79;82.16;97514.41;4993721;28;20050;-83
2023/04/01 03:15:14;;;;;;;4.65;3.92;;;;;;;11.80;81.93;97527.44;5008329;28;20352;-83
2023/04/01 03:17:43;;;;;;;4.15;3.75;;;;;;;11.81;82.20;97523.81;4992076;28;20257;-83
2023/04/01 03:20:10;;;;;;;6.53;4.15;;;;;;;11.82;82.11;97520.19;4993801;28;20054;-83
2023/04/01 03:22:40;;;;;;;4.07;3.67;;;;;;;11.83;81.68;97524.53;4993699;28;20054;-83
2023/04/01 03:25:10;;;;;;;3.78;3.38;;;;;;;11.85;81.84;97519.09;4992028;28;20504;-82
2023/04/01 03:27:37;;;;;;;6.85;3.35;;;;;;;11.88;81.85;97523.25;4993030;28;20066;-83
2023/04/01 03:30:05;;;;;;;4.15;3.10;;;;;;;11.88;81.74;97521.41;4993447;28;20059;-83
2023/04/01 03:32:32;;;;;;;5.65;3.60;;;;;;;11.90;81.85;97527.38;4993466;28;20141;-82
2023/04/01 03:34:59;;;;;;;3.53;3.22;;;;;;;11.90;81.80;97524.75;4993226;28;20141;-83
2023/04/01 03:37:25;;;;;;;5.43;2.75;;;;;;;11.91;81.70;97525.56;4993267;28;20070;-83
2023/04/01 03:39:51;;;;;;;3.88;2.80;;;;;;;11.93;81.70;97526.25;5114959;23;20495;-79
2023/04/01 03:42:33;;;;;;;3.13;2.80;;;;;;;11.90;80.87;97529.16;4975254;28;20084;-79
2023/04/01 03:45:00;;;;;;;4.68;3.17;;;;;;;11.95;81.65;97533.03;4974785;28;20058;-79
2023/04/01 03:47:45;;;;;;;4.40;3.53;;;;;;;11.93;80.75;97531.50;4974766;28;20155;-79
2023/04/01 03:50:15;;;;;;;6.40;3.60;;;;;;;11.96;81.14;97534.66;4975974;28;20058;-79
2023/04/01 03:53:04;;;;;;;3.90;3.55;;;;;;;11.98;81.32;97538.00;4915593;29;20058;-79
2023/04/01 03:56:17;;;;;;;4.05;3.65;;;;;;;11.92;80.30;97528.03;4902831;29;20052;-79
2023/04/01 03:59:01;;;;;;;4.32;3.70;;;;;;;11.92;80.14;97537.78;4961566;28;20121;-79
2023/04/01 04:01:29;;;;;;;3.35;3.08;;;;;;;11.93;80.75;97532.31;4975351;28;20534;-79
2023/04/01 04:10:20;;;;;;;3.13;2.92;;;;;;;11.78;80.19;97541.75;4931102;28;20501;-79
2023/04/01 04:16:36;;;;;;;3.15;2.85;;;;;;;11.78;81.13;97544.41;4973735;28;20065;-79
2023/04/01 04:19:05;;;;;;;3.55;3.25;;;;;;;11.73;80.98;97542.19;4994390;28;20062;-79
2023/04/01 04:21:41;;;;;;;3.15;2.90;;;;;;;11.70;80.83;97553.06;4993997;28;20462;-79
2023/04/01 04:24:37;;;;;;;3.25;3.03;;;;;;;11.71;81.06;97549.44;4924771;28;20055;-79
2023/04/01 04:27:04;;;;;;;3.50;3.20;;;;;;;11.70;81.57;97545.97;4993644;28;20470;-79
2023/04/01 04:29:48;;;;;;;2.95;2.75;;;;;;;11.66;81.07;97547.25;4994404;28;20054;-79
2023/04/01 04:32:17;;;;;;;3.90;3.20;;;;;;;11.70;81.70;97555.69;4993782;28;20435;-79
2023/04/01 04:35:02;;;;;;;3.28;2.97;;;;;;;11.64;80.85;97562.38;4993828;28;20578;-79
2023/04/01 04:37:40;;;;;;;3.47;3.17;;;;;;;11.64;80.85;97553.63;4993764;28;20061;-79
2023/04/01 04:40:13;;;;;;;3.10;2.65;;;;;;;11.65;81.57;97556.13;4972709;28;20154;-79
2023/04/01 04:42:39;;;;;;;4.10;2.83;;;;;;;11.64;81.68;97558.91;4974142;28;20141;-78
2023/04/01 04:45:06;;;;;;;3.15;2.85;;;;;;;11.63;81.79;97560.72;4988431;28;20093;-79
2023/04/01 04:47:39;;;;;;;3.03;2.72;;;;;;;11.62;81.82;97556.41;4973612;28;20093;-79
2023/04/01 04:51:37;;;;;;;2.63;2.42;;;;;;;11.60;81.15;97564.47;4959396;28;20545;-79
2023/04/01 04:54:45;;;;;;;2.25;2.10;;;;;;;11.61;81.06;97573.22;4913001;29;20577;-79
2023/04/01 04:57:53;;;;;;;2.78;2.58;;;;;;;11.59;81.09;97577.81;4901904;28;20446;-79
2023/04/01 05:03:47;;;;;;;3.13;2.83;;;;;;;11.63;81.73;97580.97;4970365;28;20507;-79
2023/04/01 05:07:22;;;;;;;3.13;2.90;;;;;;;11.56;81.17;97578.09;4973975;28;20058;-79
2023/04/01 05:10:36;;;;;;;2.60;2.40;;;;;;;11.54;81.14;97580.03;4957657;28;20057;-78
2023/04/01 05:13:06;;;;;;;2.03;1.92;;;;;;;11.58;81.46;97586.69;4966426;28;20491;-79
2023/04/01 05:15:37;;;;;;;2.00;1.90;;;;;;;11.54;81.76;97594.06;4972530;28;20051;-79
2023/04/01 05:18:12;;;;;;;2.30;2.20;;;;;;;11.52;81.79;97582.00;4968804;28;20047;-79
2023/04/01 05:21:06;;;;;;;2.50;2.30;;;;;;;11.52;82.07;97596.03;4989995;28;20058;-79
2023/04/01 05:23:42;;;;;;;2.28;2.15;;;;;;;11.57;82.32;97588.50;4972434;28;20086;-79
2023/04/01 05:26:50;;;;;;;2.70;2.50;;;;;;;11.59;82.13;97589.16;4957744;28;20447;-79
2023/04/01 05:29:54;;;;;;;3.00;2.80;;;;;;;11.64;82.01;97590.53;4958780;28;20585;-79
2023/04/01 05:32:38;;;;;;;2.38;2.17;;;;;;;11.72;82.88;97595.91;4921194;29;20107;-79
2023/04/01 05:38:57;;;;;;;2.78;2.58;;;;;;;11.72;81.63;97595.91;4931218;29;20090;-78
2023/04/01 05:41:26;;;;;;;;;;;;;;;11.77;81.31;97606.00;4931867;29;20130;-77
2023/04/01 05:44:14;;;;;;;3.10;2.90;;;;;;;11.79;81.23;97607.50;4911237;29;20482;-77
2023/04/01 05:46:49;;;;;;;3.22;3.03;;;;;;;11.76;81.30;97599.88;4906017;29;20047;-77
2023/04/01 05:49:16;;;;;;;4.28;3.88;;;;;;;11.78;81.94;97610.28;4954075;29;20047;-77
2023/04/01 05:51:43;;;;;;;4.00;3.67;;;;;;;11.75;81.94;97602.66;4953317;29;20086;-77
2023/04/01 05:54:18;;;;;;;3.90;3.60;;;;;;;11.72;81.59;97606.44;4953492;29;20055;-78
2023/04/01 05:56:45;;;;;;;5.38;4.07;;;;;;;11.73;82.10;97610.72;4967753;28;20063;-77
2023/04/01 05:59:23;;;;;;;4.93;4.20;;;;;;;11.69;81.46;97610.19;4953679;29;20055;-77
2023/04/01 06:01:50;;;;;;;4.70;4.30;;;;;;;11.73;82.25;97616.00;4953126;29;20059;-77
2023/04/01 06:04:19;;;;;;;5.68;4.78;;;;;;;11.70;82.11;97617.13;4953362;29;20087;-77
2023/04/01 06:06:49;;;;;;;6.55;5.95;;;;;;;11.72;82.39;97616.97;4967406;28;20055;-76
2023/04/01 06:09:18;;;;;;;7.00;5.85;;;;;;;11.72;82.20;97620.44;4968145;28;20063;-76
2023/04/01 06:12:17;;;;;;;6.20;5.60;;;;;;;11.70;81.50;97629.50;4967935;28;20109;-76
2023/04/01 06:15:21;;;;;;;7.47;6.13;;;;;;;11.69;81.46;97625.16;4953106;29;20265;-76
2023/04/01 06:18:16;;;;;;;5.75;5.25;;;;;;;11.69;81.63;97630.44;4952591;28;20102;-76
2023/04/01 06:21:09;;;;;;;7.15;6.45;;;;;;;11.70;81.58;97634.75;4952956;29;20087;-77
2023/04/01 06:24:18;;;;;;;7.28;6.63;;;;;;;11.68;81.35;97636.69;4952782;29;20110;-77
2023/04/01 06:27:02;;;;;;;7.30;6.60;;;;;;;11.67;81.60;97638.50;4972747;28;20104;-77
2023/04/01 06:29:40;;;;;;;7.15;6.45;;;;;;;11.66;81.57;97641.28;4986407;28;20050;-77
2023/04/01 06:32:28;;;;;;;7.50;6.22;;;;;;;11.67;81.96;97643.75;4990403;28;20089;-77
2023/04/01 06:35:06;;;;;;;6.18;5.57;;;;;;;11.67;82.28;97646.41;4988510;28;20668;-77
2023/04/01 06:38:04;;;;;;;5.65;5.05;;;;;;;11.62;81.54;97645.19;4989768;28;20069;-77
2023/04/01 06:40:56;;;;;;;6.05;5.15;;;;;;;11.60;81.29;97654.06;4973604;28;20108;-77
2023/04/01 06:43:46;;;;;;;6.35;5.75;;;;;;;11.59;81.60;97654.22;4978386;28;20411;-76
2023/04/01 06:46:40;;;;;;;6.18;5.57;;;;;;;11.58;81.71;97656.03;4989258;28;20087;-77
2023/04/01 06:49:55;;;;;;;6.53;5.40;;;;;;;11.56;81.95;97660.59;4989432;28;20058;-76
2023/04/01 06:52:53;;;;;;;6.53;5.70;;;;;;;11.59;82.17;97656.88;4973434;28;20145;-77
2023/04/01 06:55:59;;;;;;;6.05;5.43;;;;;;;11.57;81.99;97667.53;4927225;29;20150;-77
2023/04/01 06:58:59;;;;;;;8.25;5.40;;;;;;;11.57;82.05;97664.06;4930034;29;20454;-78
2023/04/01 07:01:44;;;;;;;6.32;5.72;;;;;;;11.58;82.17;97666.56;4931118;29;20062;-77
2023/04/01 07:04:29;;;;;;;5.82;5.32;;;;;;;11.58;82.02;97671.00;4931014;29;20058;-77
2023/04/01 07:10:05;;;;;;;5.57;5.03;;;;;;;11.62;82.94;97677.63;4913027;29;20056;-77
2023/04/01 07:12:31;;;;;;;6.15;5.63;;;;;;;11.65;82.91;97687.03;4930618;29;20675;-80
2023/04/01 07:15:03;;;;;;;5.55;5.05;;;;;;;11.64;82.83;97685.41;4939049;28;20109;-78
2023/04/01 07:17:35;;;;;;;6.00;4.73;;;;;;;11.64;82.32;97680.97;4971179;28;20050;-78
2023/04/01 07:20:10;;;;;;;5.38;4.88;;;;;;;11.64;82.33;97690.66;4986463;28;20571;-78
2023/04/01 07:22:44;;;;;;;5.32;4.82;;;;;;;11.64;82.10;97691.50;4977414;28;20058;-77
2023/04/01 07:25:20;;;;;;;4.97;4.57;;;;;;;11.65;82.46;97695.78;4990630;28;20086;-79
2023/04/01 07:27:47;;;;;;;4.57;4.18;;;;;;;11.66;82.91;97700.09;4990721;28;20128;-78
2023/04/01 07:30:16;;;;;;;5.75;4.40;;;;;;;11.68;82.67;97697.31;4990763;28;20066;-78
2023/04/01 07:32:46;;;;;;;4.15;3.53;;;;;;;11.66;82.56;97701.91;4990484;28;20137;-78
2023/04/01 07:35:13;;;;;;;3.65;3.30;;;;;;;11.68;82.90;97703.41;4990077;28;20557;-78
2023/04/01 07:38:09;;;;;;;3.95;3.55;;;;;;;11.68;82.43;97715.75;4990358;28;20138;-78
2023/04/01 07:40:55;;;;;;;3.20;2.90;;;;;;;11.70;82.24;97713.81;4989444;28;20054;-77
2023/04/01 07:43:42;;;;;;;3.45;3.15;;;;;;;11.67;81.98;97712.28;4994575;28;20050;-78
2023/04/01 07:46:34;;;;;;;4.30;3.10;;;;;;;11.68;82.25;97713.13;4994067;28;20058;-77
2023/04/01 07:49:07;;;;;;;3.75;2.75;;;;;;;11.72;82.98;97717.13;4993045;28;20499;-77
2023/04/01 07:51:58;;;;;;;3.67;3.33;;;;;;;11.72;83.28;97717.97;4994336;28;20060;-77
2023/04/01 07:54:39;;;;;;;3.58;3.28;;;;;;;11.71;82.48;97732.09;4949868;28;20055;-78
2023/04/01 07:57:27;;;;;;;3.88;3.58;;;;;;;11.72;82.41;97727.66;4993659;28;20060;-77
2023/04/01 08:00:06;;;;;;;5.43;3.65;;;;;;;11.77;82.98;97732.50;4994267;28;20054;-77
2023/04/01 08:02:44;;;;;;;3.90;3.50;;;;;;;11.79;83.07;97736.66;4993915;28;20181;-77
2023/04/01 08:05:45;;;;;;;3.83;3.47;;;;;;;11.82;83.15;97739.00;4993637;28;20062;-77
2023/04/01 08:08:30;;;;;;;4.68;3.70;;;;;;;11.90;83.50;97737.44;4993534;28;20533;-78
2023/04/01 08:11:35;;;;;;;4.55;4.15;;;;;;;11.96;83.85;97742.16;4993967;28;20101;-78
2023/04/01 08:14:30;;;;;;;4.57;4.18;;;;;;;12.00;83.32;97746.13;4895433;29;20060;-78
2023/04/01 08:17:03;;;;;;;4.90;4.50;;;;;;;12.09;84.26;97750.56;4992683;28;20061;-77
2023/04/01 08:19:51;;;;;;;6.75;4.90;;;;;;;12.10;83.12;97759.28;4993850;28;20133;-77
2023/04/01 08:22:33;;;;;;;6.72;4.57;;;;;;;12.15;82.95;97757.03;4993528;28;20121;-78
2023/04/01 08:25:06;;;;;;;4.90;4.50;;;;;;;12.24;84.34;97766.72;4993355;28;20057;-78
2023/04/01 08:27:51;;;;;;;5.50;5.00;;;;;;;12.27;84.03;97765.59;4992975;28;20054;-78
2023/04/01 08:30:25;;;;;;;5.28;4.78;;;;;;;12.37;84.77;97769.00;4992343;28;20057;-78
2023/04/01 08:33:04;;;;;;;5.68;5.10;;;;;;;12.46;84.57;97772.56;4992183;28;20066;-79
2023/04/01 08:35:57;;;;;;;5.47;4.65;;;;;;;12.55;84.59;97773.47;4992949;28;20050;-78
2023/04/01 08:38:32;;;;;;;5.20;4.70;;;;;;;12.68;85.09;97769.63;4993057;28;20051;-78
2023/04/01 08:41:06;;;;;;;5.45;4.95;;;;;;;12.81;86.02;97777.16;4993201;28;20058;-78
2023/04/01 08:43:41;;;;;;;4.93;4.53;;;;;;;12.92;85.64;97776.09;4993581;28;20439;-78
2023/04/01 08:46:34;;;;;;;5.00;4.47;;;;;;;13.02;84.33;97779.50;4992996;28;20082;-78
2023/04/01 08:49:22;;;;;;;4.70;4.30;;;;;;;13.16;84.47;97791.34;4993172;28;20096;-79
2023/04/01 08:52:20;;;;;;;5.13;4.63;;;;;;;13.27;84.14;97785.00;4992223;28;20149;-78
2023/04/01 08:55:00;;;;;;;4.95;4.45;;;;;;;13.38;83.83;97790.00;4992960;28;20133;-78
2023/04/01 08:57:52;;;;;;;5.68;5.18;;;;;;;13.49;83.63;97788.16;4992624;28;20085;-78
2023/04/01 09:00:32;;;;;;;5.03;4.63;;;;;;;13.61;83.87;97794.00;4991964;28;20120;-78
2023/04/01 09:03:14;;;;;;;4.97;4.57;;;;;;;13.71;83.29;97796.53;4975542;28;20141;-78
2023/04/01 09:05:59;;;;;;;5.00;4.60;;;;;;;13.85;84.98;97798.59;4992652;28;20062;-78
2023/04/01 09:08:38;;;;;;;5.20;4.78;;;;;;;13.93;83.41;97797.81;4992184;28;20054;-78
2023/04/01 09:11:21;;;;;;;6.28;5.68;;;;;;;14.05;84.66;97801.84;4991569;28;20240;-78
2023/04/01 09:13:56;;;;;;;5.93;5.43;;;;;;;14.17;83.85;97802.38;4992530;28;20057;-78
2023/04/01 09:16:51;;;;;;;5.80;5.30;;;;;;;14.29;83.15;97804.75;4992152;28;20171;-78
2023/04/01 09:19:32;;;;;;;5.65;5.15;;;;;;;14.41;82.58;97803.47;4992855;28;20150;-78
2023/04/01 09:22:11;;;;;;;5.15;4.75;;;;;;;14.52;82.18;97809.44;4992578;28;20058;-78
2023/04/01 09:24:52;;;;;;;4.35;3.95;;;;;;;14.63;82.59;97814.44;4992501;28;20058;-78
2023/04/01 09:27:49;;;;;;;4.47;4.07;;;;;;;14.70;80.86;97817.28;4992291;28;20100;-78
2023/04/01 09:30:27;;;;;;;4.85;4.45;;;;;;;14.79;81.17;97820.78;4992504;28;20141;-78
2023/04/01 09:33:12;;;;;;;4.95;4.55;;;;;;;14.80;79.58;97817.16;4992227;28;20514;-78
2023/04/01 09:36:12;;;;;;;5.22;4.82;;;;;;;14.79;79.24;97824.28;4992135;28;20051;-78
2023/04/01 09:39:23;;;;;;;4.28;3.63;;;;;;;14.78;79.02;97829.72;4991832;28;20413;-78
2023/04/01 09:44:31;;;;;;;3.53;3.22;;;;;;;14.77;79.04;97838.66;4990903;28;20046;-80
2023/04/01 09:47:42;;;;;;;3.72;3.42;;;;;;;14.76;78.81;97845.78;4991540;28;20047;-79
2023/04/01 09:50:44;;;;;;;4.03;3.72;;;;;;;14.75;78.94;97838.78;4991984;28;20108;-78
2023/04/01 09:53:30;;;;;;;4.18;3.88;;;;;;;14.77;79.29;97843.97;4992226;28;20050;-79
2023/04/01 09:56:18;;;;;;;4.22;3.90;;;;;;;14.83;80.81;97843.31;4991645;28;20553;-79
2023/04/01 09:59:39;;;;;;;4.78;4.30;;;;;;;14.84;79.88;97837.03;4991338;28;20054;-79
2023/04/01 10:02:43;;;;;;;5.07;4.68;;;;;;;14.89;78.89;97845.31;4931301;29;20067;-78
2023/04/01 10:05:28;;;;;;;5.00;4.55;;;;;;;14.97;80.99;97853.28;4990171;28;20141;-78
2023/04/01 10:08:25;;;;;;;3.80;3.53;;;;;;;14.94;78.31;97848.31;4991560;28;20071;-79
2023/04/01 10:11:13;;;;;;;3.53;3.22;;;;;;;14.96;78.52;97850.78;4991661;28;20069;-81
2023/04/01 10:13:58;;;;;;;3.42;3.22;;;;;;;14.98;78.87;97854.09;4991537;28;20056;-78
2023/04/01 10:16:40;;;;;;;3.67;3.42;;;;;;;15.03;78.74;97850.97;4991203;28;20077;-80
2023/04/01 10:19:30;;;;;;;4.82;4.43;;;;;;;15.05;78.29;97854.28;4991534;28;20524;-78
2023/04/01 10:22:19;;;;;;;4.18;3.88;;;;;;;15.10;79.26;97860.75;4991446;28;20055;-78
2023/04/01 10:25:18;;;;;;;5.05;4.55;;;;;;;15.03;77.32;97865.03;4991405;28;20081;-78
2023/04/01 10:28:16;;;;;;;4.97;4.47;;;;;;;14.96;76.57;97864.84;4990690;28;20057;-80
2023/04/01 10:31:17;;;;;;;4.75;4.35;;;;;;;14.87;76.38;97865.84;4991091;28;20062;-80
2023/04/01 10:34:09;;;;;;;4.68;4.28;;;;;;;14.79;77.05;97869.28;4991301;28;20153;-79
2023/04/01 10:36:51;;;;;;;4.22;3.90;;;;;;;14.70;77.22;97870.25;4990557;28;20144;-80
2023/04/01 10:39:39;;;;;;;4.18;3.88;;;;;;;14.63;77.44;97874.50;4991453;28;20124;-78
2023/04/01 10:42:21;;;;;;;4.38;4.03;;;;;;;14.61;78.28;97877.31;4991186;28;20077;-78
2023/04/01 10:45:34;;;;;;;3.22;3.00;;;;;;;14.59;78.63;97885.41;4990829;28;20058;-79
2023/04/01 10:48:25;;;;;;;2.80;2.60;;;;;;;14.63;79.06;97875.34;4990677;28;20051;-78
2023/04/01 10:51:21;;;;;;;2.15;2.05;;;;;;;14.62;78.19;97880.81;4991155;28;20058;-79
2023/04/01 10:54:03;;;;;;;1.73;1.63;;;;;;;14.65;78.43;97885.78;4956644;28;20070;-79
2023/04/01 10:56:56;;;;;;;1.55;1.45;;;;;;;14.66;78.18;97884.78;4989662;28;20473;-79
2023/04/01 10:59:57;;;;;;;1.13;1.13;;;;;;;14.65;78.28;97891.88;4990613;28;20066;-79
2023/04/01 11:02:35;;;;;;;1.38;1.17;;;;;;;14.66;78.46;97898.84;4991012;28;20116;-80
2023/04/01 11:05:44;;;;;;;1.38;1.27;;;;;;;14.64;77.83;97887.59;4990314;28;20054;-79
2023/04/01 11:08:36;;;;;;;1.73;1.63;;;;;;;14.65;78.15;97901.69;4990413;28;20419;-79
2023/04/01 11:11:21;;;;;;;1.88;1.77;;;;;;;14.65;78.38;97901.69;4989555;28;20060;-78
2023/04/01 11:14:09;;;;;;;1.98;1.60;;;;;;;14.65;78.18;97899.84;4990250;28;20077;-78
2023/04/01 11:17:06;;;;;;;1.80;1.70;;;;;;;14.64;77.93;97902.63;4993944;28;20054;-79
2023/04/01 11:19:44;;;;;;;1.70;1.60;;;;;;;14.66;79.32;97913.91;4994680;28;20052;-78
2023/04/01 11:22:45;;;;;;;2.15;2.05;;;;;;;14.58;78.35;97912.06;4994862;28;20077;-80
2023/04/01 11:25:40;;;;;;;2.38;2.17;;;;;;;14.60;79.03;97920.66;4963779;28;20073;-80
2023/04/01 11:28:24;;;;;;;2.70;2.50;;;;;;;14.59;78.67;97913.72;4994483;28;20511;-79
2023/04/01 11:31:16;;;;;;;3.13;2.90;;;;;;;14.60;78.13;97918.03;4994821;28;20050;-78
2023/04/01 11:33:48;;;;;;;3.28;3.08;;;;;;;14.62;78.38;97921.38;4994632;28;20057;-78
2023/04/01 11:36:30;;;;;;;4.15;3.85;;;;;;;14.64;79.38;97929.97;4994081;28;20058;-79
2023/04/01 11:39:01;;;;;;;4.28;3.95;;;;;;;14.62;79.58;97918.72;4994172;28;20117;-79
2023/04/01 11:41:45;;;;;;;4.50;4.10;;;;;;;14.56;78.68;97928.13;4977021;28;20058;-79
2023/04/01 11:44:17;;;;;;;5.18;4.68;;;;;;;14.60;80.51;97931.25;4994686;28;20116;-78
2023/04/01 11:47:32;;;;;;;5.72;5.22;;;;;;;14.67;80.48;97931.47;4993672;28;20050;-79
2023/04/01 11:50:22;;;;;;;5.65;4.97;;;;;;;14.85;82.87;97936.69;4959940;28;20058;-78
2023/04/01 11:53:07;;;;;;;5.40;4.95;;;;;;;14.95;82.45;97945.31;4983991;28;20136;-81
2023/04/01 11:55:40;;;;;;;5.45;5.05;;;;;;;15.02;79.95;97942.06;4993782;28;20070;-79
2023/04/01 11:58:12;;;;;;;5.43;5.00;;;;;;;15.11;80.81;97949.84;4993783;28;20432;-79
2023/04/01 12:01:06;;;;;;;5.68;5.18;;;;;;;15.09;77.85;97951.00;4994289;28;20054;-81
2023/04/01 12:03:51;;;;;;;;;;;;;;;15.14;77.94;97953.19;4994717;28;20050;-79
2023/04/01 12:06:46;;;;;;;5.50;5.00;;;;;;;15.12;77.04;97966.59;4993085;28;19922;-78
2023/04/01 12:09:34;;;;;;;6.15;5.55;;;;;;;15.01;76.70;97964.22;5004449;28;20046;-79
2023/04/01 12:12:34;;;;;;;5.20;4.80;;;;;;;14.91;76.64;97964.38;4998432;28;20061;-80
2023/04/01 12:15:26;;;;;;;4.78;4.35;;;;;;;14.80;76.91;97971.59;4974077;28;20101;-78
2023/04/01 12:18:00;;;;;;;4.68;4.28;;;;;;;14.71;77.08;97972.53;4973855;28;20063;-78
2023/04/01 12:20:41;;;;;;;5.00;4.60;;;;;;;14.62;77.40;97976.97;4974081;28;20054;-78
2023/04/01 12:23:38;;;;;;;5.32;4.82;;;;;;;14.53;77.84;97981.38;4974448;28;20051;-79
2023/04/01 12:26:20;;;;;;;5.22;4.72;;;;;;;14.48;78.61;97985.47;4987429;28;20055;-79
2023/04/01 12:29:20;;;;;;;4.85;4.45;;;;;;;14.45;79.42;97987.47;5000283;28;20052;-78
2023/04/01 12:31:51;;;;;;;3.67;3.38;;;;;;;14.46;79.33;97993.56;5010359;28;20050;-78
2023/04/01 12:34:39;;;;;;;2.78;2.58;;;;;;;14.45;79.59;98000.69;5006863;28;20072;-78
2023/04/01 12:37:26;;;;;;;2.72;2.53;;;;;;;14.45;80.67;98000.69;4992841;28;20086;-78
2023/04/01 12:40:20;;;;;;;5.88;2.40;;;;;;;14.41;79.63;98002.00;5003113;28;20050;-79
2023/04/01 12:43:04;;;;;;;2.53;2.33;;;;;;;14.43;79.79;98009.78;5011607;28;20058;-78
2023/04/01 12:45:40;;;;;;;2.50;2.30;;;;;;;14.43;79.86;98007.13;5012256;28;20045;-79
2023/04/01 12:48:24;;;;;;;2.75;2.55;;;;;;;14.46;80.51;98020.03;5000171;28;20046;-78
2023/04/01 12:51:15;;;;;;;3.20;2.53;;;;;;;14.40;79.17;98025.97;5002990;28;20058;-79
2023/04/01 12:53:57;;;;;;;3.13;2.83;;;;;;;14.41;79.49;98017.03;4994835;28;20050;-79
2023/04/01 12:56:38;;;;;;;3.03;2.78;;;;;;;14.42;79.82;98022.19;5005356;28;20078;-78
2023/04/01 12:59:35;;;;;;;3.45;3.15;;;;;;;14.41;79.13;98027.63;4994072;28;20085;-78
2023/04/01 13:02:13;;;;;;;3.55;3.25;;;;;;;14.43;79.60;98026.47;4992790;28;20054;-79